RoSS Sea — WDE3122 — position and weather

sailwx.info

Track history (hours):
 
Tides and Currents Weather Stations Pressure Air Temp Water Temp Dewpoint Dewpoint Depression Visibility Wind Speed Wind Dir Waves Ship Positions

RoSS Sea

Owner: Kirby Inland Marine, LP, Houston, TX. More information available from US FCC via Universal Licensing System and Coast Guard Vessel Documentation Center.

Last reported at 2014-Dec-21 12:33 UTC. Time now 2014-Dec-21 15:10 UTC.
Position N 40°39' W 074°07'.

Length 30 m; draft 5 m.

Type: Tow > 200 m length. MMSI: 367334360.

Date/timePositionNaut miles runAvg speedWind from/ knotsBaromVisibWave heightAir tempDewpointWater temp
2014-Dec-21 12:33N 40°39' W 074°07'1 1.3
2014-Dec-21 11:33N 40°39' W 074°05'0 0.0
2014-Dec-21 10:29N 40°39' W 074°05'0 0.0
2014-Dec-21 09:32N 40°39' W 074°05'0 0.0
2014-Dec-21 08:33N 40°39' W 074°05'0 0.0
2014-Dec-21 07:33N 40°39' W 074°05'0 0.0
2014-Dec-21 06:33N 40°39' W 074°05'1 0.1
2014-Dec-21 00:33N 40°39' W 074°06'2 1.7
2014-Dec-20 23:33N 40°39' W 074°03'3 3.1
2014-Dec-20 22:30N 40°39' W 074°08'2 1.9
2014-Dec-20 21:33N 40°39' W 074°10'0 0.0
2014-Dec-20 20:33N 40°39' W 074°10'4 4.3
2014-Dec-20 19:33N 40°39' W 074°04'1 0.6
2014-Dec-20 18:33N 40°39' W 074°04'5 4.6
2014-Dec-20 17:33N 40°39' W 074°10'0 0.0
2014-Dec-20 16:33N 40°39' W 074°10'0 0.0
2014-Dec-20 15:33N 40°39' W 074°10'1 1.2
2014-Dec-20 14:33N 40°39' W 074°08'4 4.3
2014-Dec-20 13:33N 40°39' W 074°03'0 0.1
2014-Dec-20 12:33N 40°39' W 074°03'0 0.0
2014-Dec-20 11:33N 40°39' W 074°03'0 0.2
2014-Dec-20 10:33N 40°39' W 074°03'7 6.6
2014-Dec-20 09:32N 40°33' W 074°01'44 7.3
2014-Dec-20 03:33N 39°49' W 073°58'7 7.5
2014-Dec-20 02:33N 39°42' W 073°59'7 7.4
2014-Dec-20 01:33N 39°34' W 074°02'  
2014-Dec-13 13:32N 39°32' W 074°03'7 7.5
2014-Dec-13 12:33N 39°39' W 074°00'47 7.7
2014-Dec-13 06:30N 40°25' W 073°54'6 6.0
2014-Dec-13 05:33N 40°30' W 073°58'7 6.3
2014-Dec-13 04:31N 40°36' W 074°03'3 2.7
2014-Dec-13 03:33N 40°38' W 074°04'6 2.9
2014-Dec-13 01:25N 40°38' W 074°12'1 1.6
2014-Dec-13 00:33N 40°39' W 074°10'0 0.0
2014-Dec-12 23:30N 40°39' W 074°10'0 0.0
2014-Dec-12 22:22N 40°39' W 074°10'0 0.0
2014-Dec-12 21:28N 40°39' W 074°10'0 0.0
2014-Dec-12 20:28N 40°39' W 074°10'0 0.0
2014-Dec-12 19:28N 40°39' W 074°10'0 0.0
2014-Dec-12 18:28N 40°39' W 074°10'0 0.0
2014-Dec-12 17:16N 40°39' W 074°10'0 0.1
2014-Dec-12 16:33N 40°39' W 074°10'0 0.0
2014-Dec-12 15:31N 40°39' W 074°10'0 0.0
2014-Dec-12 14:31N 40°39' W 074°10'0 0.0
2014-Dec-12 13:31N 40°39' W 074°10'0 0.0
2014-Dec-12 12:31N 40°39' W 074°10'0 0.0
2014-Dec-12 11:28N 40°39' W 074°10'0 0.0
2014-Dec-12 10:29N 40°39' W 074°10'0 0.0
2014-Dec-12 09:29N 40°39' W 074°10'0 0.0
2014-Dec-12 08:29N 40°39' W 074°10'0 0.0
2014-Dec-12 07:32N 40°39' W 074°10'0 0.0
2014-Dec-12 06:29N 40°39' W 074°10'0 0.0
2014-Dec-12 05:23N 40°39' W 074°10'0 0.3
2014-Dec-12 04:33N 40°39' W 074°10'0 0.2
2014-Dec-12 03:31N 40°38' W 074°10'0 0.0
2014-Dec-12 02:31N 40°38' W 074°10'0 0.0
2014-Dec-12 01:31N 40°38' W 074°10'0 0.0
2014-Dec-12 00:31N 40°38' W 074°10'0 0.0
2014-Dec-11 23:28N 40°38' W 074°10'0 0.2
2014-Dec-11 22:33N 40°39' W 074°10'0 0.2
2014-Dec-11 21:30N 40°38' W 074°10'0 0.0
2014-Dec-11 20:33N 40°38' W 074°10'1 1.1
2014-Dec-11 19:33N 40°39' W 074°11'0 0.3
2014-Dec-11 18:29N 40°38' W 074°12'0 0.0
2014-Dec-11 17:29N 40°38' W 074°12'2 1.7
2014-Dec-11 16:33N 40°39' W 074°10'6 5.9
2014-Dec-11 15:32N 40°40' W 074°02'0 0.1
2014-Dec-11 14:32N 40°40' W 074°02'0 0.0
2014-Dec-11 13:32N 40°40' W 074°02'  
Track history (hours):
 
Tides and Currents Weather Stations Pressure Air Temp Water Temp Dewpoint Dewpoint Depression Visibility Wind Speed Wind Dir Waves Ship Positions

RoSS Sea

Owner: Kirby Inland Marine, LP, Houston, TX. More information available from US FCC via Universal Licensing System and Coast Guard Vessel Documentation Center.

Last reported at 2014-Dec-21 12:33 UTC. Time now 2014-Dec-21 15:10 UTC.
Position N 40°39' W 074°07'.

Length 30 m; draft 5 m.

Type: Tow > 200 m length. MMSI: 367334360.

Date/timePositionNaut miles runAvg speedWind from/ knotsBaromVisibWave heightAir tempDewpointWater temp
2014-Dec-21 12:33N 40°39' W 074°07'1 1.3
2014-Dec-21 11:33N 40°39' W 074°05'0 0.0
2014-Dec-21 10:29N 40°39' W 074°05'0 0.0
2014-Dec-21 09:32N 40°39' W 074°05'0 0.0
2014-Dec-21 08:33N 40°39' W 074°05'0 0.0
2014-Dec-21 07:33N 40°39' W 074°05'0 0.0
2014-Dec-21 06:33N 40°39' W 074°05'1 0.1
2014-Dec-21 00:33N 40°39' W 074°06'2 1.7
2014-Dec-20 23:33N 40°39' W 074°03'3 3.1
2014-Dec-20 22:30N 40°39' W 074°08'2 1.9
2014-Dec-20 21:33N 40°39' W 074°10'0 0.0
2014-Dec-20 20:33N 40°39' W 074°10'4 4.3
2014-Dec-20 19:33N 40°39' W 074°04'1 0.6
2014-Dec-20 18:33N 40°39' W 074°04'5 4.6
2014-Dec-20 17:33N 40°39' W 074°10'0 0.0
2014-Dec-20 16:33N 40°39' W 074°10'0 0.0
2014-Dec-20 15:33N 40°39' W 074°10'1 1.2
2014-Dec-20 14:33N 40°39' W 074°08'4 4.3
2014-Dec-20 13:33N 40°39' W 074°03'0 0.1
2014-Dec-20 12:33N 40°39' W 074°03'0 0.0
2014-Dec-20 11:33N 40°39' W 074°03'0 0.2
2014-Dec-20 10:33N 40°39' W 074°03'7 6.6
2014-Dec-20 09:32N 40°33' W 074°01'44 7.3
2014-Dec-20 03:33N 39°49' W 073°58'7 7.5
2014-Dec-20 02:33N 39°42' W 073°59'7 7.4
2014-Dec-20 01:33N 39°34' W 074°02'  
2014-Dec-13 13:32N 39°32' W 074°03'7 7.5
2014-Dec-13 12:33N 39°39' W 074°00'47 7.7
2014-Dec-13 06:30N 40°25' W 073°54'6 6.0
2014-Dec-13 05:33N 40°30' W 073°58'7 6.3
2014-Dec-13 04:31N 40°36' W 074°03'3 2.7
2014-Dec-13 03:33N 40°38' W 074°04'6 2.9
2014-Dec-13 01:25N 40°38' W 074°12'1 1.6
2014-Dec-13 00:33N 40°39' W 074°10'0 0.0
2014-Dec-12 23:30N 40°39' W 074°10'0 0.0
2014-Dec-12 22:22N 40°39' W 074°10'0 0.0
2014-Dec-12 21:28N 40°39' W 074°10'0 0.0
2014-Dec-12 20:28N 40°39' W 074°10'0 0.0
2014-Dec-12 19:28N 40°39' W 074°10'0 0.0
2014-Dec-12 18:28N 40°39' W 074°10'0 0.0
2014-Dec-12 17:16N 40°39' W 074°10'0 0.1
2014-Dec-12 16:33N 40°39' W 074°10'0 0.0
2014-Dec-12 15:31N 40°39' W 074°10'0 0.0
2014-Dec-12 14:31N 40°39' W 074°10'0 0.0
2014-Dec-12 13:31N 40°39' W 074°10'0 0.0
2014-Dec-12 12:31N 40°39' W 074°10'0 0.0
2014-Dec-12 11:28N 40°39' W 074°10'0 0.0
2014-Dec-12 10:29N 40°39' W 074°10'0 0.0
2014-Dec-12 09:29N 40°39' W 074°10'0 0.0
2014-Dec-12 08:29N 40°39' W 074°10'0 0.0
2014-Dec-12 07:32N 40°39' W 074°10'0 0.0
2014-Dec-12 06:29N 40°39' W 074°10'0 0.0
2014-Dec-12 05:23N 40°39' W 074°10'0 0.3
2014-Dec-12 04:33N 40°39' W 074°10'0 0.2
2014-Dec-12 03:31N 40°38' W 074°10'0 0.0
2014-Dec-12 02:31N 40°38' W 074°10'0 0.0
2014-Dec-12 01:31N 40°38' W 074°10'0 0.0
2014-Dec-12 00:31N 40°38' W 074°10'0 0.0
2014-Dec-11 23:28N 40°38' W 074°10'0 0.2
2014-Dec-11 22:33N 40°39' W 074°10'0 0.2
2014-Dec-11 21:30N 40°38' W 074°10'0 0.0
2014-Dec-11 20:33N 40°38' W 074°10'1 1.1
2014-Dec-11 19:33N 40°39' W 074°11'0 0.3
2014-Dec-11 18:29N 40°38' W 074°12'0 0.0
2014-Dec-11 17:29N 40°38' W 074°12'2 1.7
2014-Dec-11 16:33N 40°39' W 074°10'6 5.9
2014-Dec-11 15:32N 40°40' W 074°02'0 0.1
2014-Dec-11 14:32N 40°40' W 074°02'0 0.0
2014-Dec-11 13:32N 40°40' W 074°02'  

Dump ship's entire track history